createdAt,value
2019-05-26T00:00:18.899Z,93906.00
2019-05-26T00:02:47.410Z,93901.88
2019-05-26T00:05:15.926Z,93900.96
2019-05-26T00:07:44.430Z,93900.33
2019-05-26T00:10:13.861Z,93903.19
2019-05-26T00:12:42.668Z,93899.59
2019-05-26T00:15:11.273Z,93898.09
2019-05-26T00:17:39.709Z,93892.38
2019-05-26T00:20:09.285Z,93898.47
2019-05-26T00:22:37.790Z,93887.67
2019-05-26T00:25:07.560Z,93892.00
2019-05-26T00:27:36.018Z,93894.05
2019-05-26T00:30:06.569Z,93891.27
2019-05-26T00:32:34.983Z,93884.25
2019-05-26T00:35:08.282Z,93886.70
2019-05-26T00:37:48.679Z,93880.96
2019-05-26T00:40:07.867Z,93881.72
2019-05-26T00:42:36.390Z,93879.59
2019-05-26T00:45:09.443Z,93883.98
2019-05-26T00:47:37.867Z,93882.53
2019-05-26T00:50:08.867Z,93883.73
2019-05-26T00:52:37.656Z,93886.70
2019-05-26T00:55:08.003Z,93881.36
2019-05-26T00:57:36.780Z,93884.97
2019-05-26T01:00:07.499Z,93888.98
2019-05-26T01:02:35.912Z,93879.31
2019-05-26T01:05:06.302Z,93878.75
2019-05-26T01:07:34.775Z,93880.23
2019-05-26T01:10:04.936Z,93878.56
2019-05-26T01:12:33.387Z,93877.84
2019-05-26T01:15:01.970Z,93876.02
2019-05-26T01:17:30.400Z,93878.34
2019-05-26T01:19:58.827Z,93877.20
2019-05-26T01:22:27.404Z,93882.50
2019-05-26T01:24:55.819Z,93878.31
2019-05-26T01:27:24.246Z,93874.73
2019-05-26T01:29:52.692Z,93869.34
2019-05-26T01:32:21.112Z,93880.55
2019-05-26T01:34:49.615Z,93868.09
2019-05-26T01:37:18.306Z,93874.77
2019-05-26T01:39:46.714Z,93872.75
2019-05-26T01:42:15.131Z,93879.34
2019-05-26T01:44:43.572Z,93880.50
2019-05-26T01:47:12.015Z,93873.67
2019-05-26T01:49:40.487Z,93879.69
2019-05-26T01:52:08.892Z,93884.56
2019-05-26T01:54:40.635Z,93883.38
2019-05-26T01:57:07.558Z,93885.28
2019-05-26T01:59:35.975Z,93878.59
2019-05-26T02:02:04.761Z,93874.98
2019-05-26T02:04:33.269Z,93882.74
2019-05-26T02:07:01.732Z,93875.64
2019-05-26T02:09:30.132Z,93878.89
2019-05-26T02:11:58.549Z,93883.22
2019-05-26T02:14:27.023Z,93885.38
2019-05-26T02:16:55.483Z,93883.61
2019-05-26T02:19:23.897Z,93884.23
2019-05-26T02:21:52.449Z,93883.97
2019-05-26T02:24:20.906Z,93879.06
2019-05-26T02:26:49.341Z,93887.55
2019-05-26T02:29:17.913Z,93880.56
2019-05-26T02:31:46.359Z,93885.59
2019-05-26T02:34:14.792Z,93879.06
2019-05-26T02:36:43.229Z,93880.84
2019-05-26T02:39:11.644Z,93877.53
2019-05-26T02:41:40.142Z,93879.53
2019-05-26T02:44:08.754Z,93876.48
2019-05-26T02:46:37.186Z,93874.83
2019-05-26T02:49:05.694Z,93877.09
2019-05-26T02:51:34.133Z,93874.64
2019-05-26T02:54:02.619Z,93878.52
2019-05-26T02:56:31.214Z,93876.33
2019-05-26T02:58:59.651Z,93876.60
2019-05-26T03:01:28.749Z,93872.08
2019-05-26T03:03:57.309Z,93872.08
2019-05-26T03:06:28.161Z,93873.66
2019-05-26T03:08:58.653Z,93882.54
2019-05-26T03:11:29.710Z,93884.44
2019-05-26T03:14:00.233Z,93880.48
2019-05-26T03:16:31.310Z,93881.27
2019-05-26T03:19:01.719Z,93880.98
2019-05-26T03:21:33.007Z,93873.48
2019-05-26T03:24:03.232Z,93879.64
2019-05-26T03:26:31.850Z,93873.90
2019-05-26T03:29:00.263Z,93871.04
2019-05-26T03:31:28.788Z,93878.19
2019-05-26T03:33:57.242Z,93881.45
2019-05-26T03:36:25.716Z,93873.04
2019-05-26T03:38:54.161Z,93875.33
2019-05-26T03:41:22.590Z,93878.30
2019-05-26T03:43:51.071Z,93868.68
2019-05-26T03:46:20.519Z,93875.41
2019-05-26T03:48:49.499Z,93869.89
2019-05-26T03:51:17.990Z,93868.22
2019-05-26T03:53:46.475Z,93867.58
2019-05-26T03:56:14.915Z,93861.70
2019-05-26T03:58:43.439Z,93866.06
2019-05-26T04:01:11.960Z,93862.48
2019-05-26T04:03:40.467Z,93869.61
2019-05-26T04:06:09.017Z,93866.19
2019-05-26T04:08:37.565Z,93865.73
2019-05-26T04:11:06.090Z,93872.91
2019-05-26T04:13:34.677Z,93877.44
2019-05-26T04:16:03.166Z,93873.48
2019-05-26T04:18:31.601Z,93865.50
2019-05-26T04:21:00.046Z,93866.00
2019-05-26T04:23:28.630Z,93862.94
2019-05-26T04:25:57.115Z,93864.81
2019-05-26T04:28:25.569Z,93868.61
2019-05-26T04:30:54.028Z,93867.78
2019-05-26T04:33:22.517Z,93876.14
2019-05-26T04:35:50.956Z,93867.88
2019-05-26T04:38:19.521Z,93864.89
2019-05-26T04:40:48.001Z,93866.25
2019-05-26T04:43:16.524Z,93871.02
2019-05-26T04:45:45.049Z,93868.20
2019-05-26T04:48:13.482Z,93871.98
2019-05-26T04:50:42.036Z,93874.36
2019-05-26T04:53:10.541Z,93877.61
2019-05-26T04:55:38.964Z,93873.05
2019-05-26T04:58:07.539Z,93878.84
2019-05-26T05:00:35.960Z,93880.41
2019-05-26T05:03:04.651Z,93881.06
2019-05-26T05:05:33.164Z,93878.39
2019-05-26T05:08:01.612Z,93881.16
2019-05-26T05:10:41.967Z,93879.22
2019-05-26T05:13:00.276Z,93879.04
2019-05-26T05:15:28.765Z,93881.25
2019-05-26T05:17:57.284Z,93876.54
2019-05-26T05:20:25.773Z,93877.48
2019-05-26T05:22:54.184Z,93884.05
2019-05-26T05:25:22.776Z,93877.63
2019-05-26T05:27:51.255Z,93874.71
2019-05-26T05:30:19.796Z,93882.11
2019-05-26T05:32:48.211Z,93882.84
2019-05-26T05:35:17.596Z,93883.04
2019-05-26T05:37:46.014Z,93882.33
2019-05-26T05:40:16.204Z,93887.02
2019-05-26T05:42:44.709Z,93889.15
2019-05-26T05:45:13.465Z,93892.78
2019-05-26T05:47:42.002Z,93898.72
2019-05-26T05:50:11.197Z,93894.84
2019-05-26T05:52:39.637Z,93893.13
2019-05-26T05:55:09.201Z,93893.05
2019-05-26T05:57:37.616Z,93892.05
2019-05-26T06:00:07.499Z,93893.38
2019-05-26T06:02:35.994Z,93886.97
2019-05-26T06:05:07.267Z,93886.91
2019-05-26T06:07:35.714Z,93887.47
2019-05-26T06:10:07.182Z,93886.30
2019-05-26T06:12:35.682Z,93889.06
2019-05-26T06:15:07.087Z,93887.78
2019-05-26T06:17:35.552Z,93892.22
2019-05-26T06:20:05.612Z,93893.10
2019-05-26T06:22:34.105Z,93894.77
2019-05-26T06:25:02.665Z,93896.27
2019-05-26T06:27:31.126Z,93892.14
2019-05-26T06:29:59.618Z,93890.70
2019-05-26T06:32:28.073Z,93889.56
2019-05-26T06:34:56.497Z,93895.85
2019-05-26T06:37:25.019Z,93887.72
2019-05-26T06:39:53.468Z,93898.39
2019-05-26T06:42:21.898Z,93898.28
2019-05-26T06:44:53.836Z,93899.23
2019-05-26T06:47:20.500Z,93893.91
2019-05-26T06:49:48.963Z,93895.11
2019-05-26T06:52:17.371Z,93891.42
2019-05-26T06:54:45.890Z,93896.72
2019-05-26T06:57:16.009Z,93894.63
2019-05-26T06:59:44.462Z,93894.60
2019-05-26T07:02:12.933Z,93899.55
2019-05-26T07:04:41.431Z,93890.99
2019-05-26T07:07:10.021Z,93897.89
2019-05-26T07:09:38.468Z,93897.19
2019-05-26T07:12:07.081Z,93892.46
2019-05-26T07:14:35.527Z,93893.72
2019-05-26T07:17:04.025Z,93893.22
2019-05-26T07:19:32.477Z,93895.80
2019-05-26T07:22:00.985Z,93889.92
2019-05-26T07:24:29.749Z,93892.72
2019-05-26T07:26:58.459Z,93886.86
2019-05-26T07:29:27.026Z,93887.44
2019-05-26T07:31:55.565Z,93883.05
2019-05-26T07:34:24.039Z,93890.62
2019-05-26T07:36:52.474Z,93888.80
2019-05-26T07:39:20.970Z,93890.14
2019-05-26T07:42:08.166Z,93889.11
2019-05-26T07:44:19.686Z,93880.47
2019-05-26T07:46:48.137Z,93884.63
2019-05-26T07:49:16.564Z,93890.27
2019-05-26T07:51:45.530Z,93892.30
2019-05-26T07:54:24.992Z,93892.70
2019-05-26T07:56:44.218Z,93889.38
2019-05-26T07:59:12.777Z,93882.19
2019-05-26T08:01:41.260Z,93876.44
2019-05-26T08:04:09.747Z,93887.39
2019-05-26T08:06:38.350Z,93892.30
2019-05-26T08:09:08.569Z,93886.63
2019-05-26T08:11:37.012Z,93880.42
2019-05-26T08:14:05.518Z,93881.01
2019-05-26T08:16:33.979Z,93881.01
2019-05-26T08:19:02.433Z,93883.88
2019-05-26T08:21:30.865Z,93881.77
2019-05-26T08:23:59.384Z,93880.56
2019-05-26T08:26:27.899Z,93874.09
2019-05-26T08:28:56.371Z,93876.05
2019-05-26T08:31:24.945Z,93872.41
2019-05-26T08:33:53.418Z,93865.21
2019-05-26T08:36:21.944Z,93862.54
2019-05-26T08:38:50.427Z,93871.39
2019-05-26T08:41:18.952Z,93859.87
2019-05-26T08:43:47.380Z,93856.52
2019-05-26T08:46:15.823Z,93860.95
2019-05-26T08:48:44.280Z,93856.84
2019-05-26T08:51:12.779Z,93855.87
2019-05-26T08:53:41.997Z,93836.83
2019-05-26T08:56:10.464Z,93852.41
2019-05-26T08:58:38.880Z,93858.69
2019-05-26T09:01:07.346Z,93856.92
2019-05-26T09:03:35.818Z,93858.19
2019-05-26T09:06:04.610Z,93857.33
2019-05-26T09:08:33.054Z,93852.53
2019-05-26T09:11:01.708Z,93859.76
2019-05-26T09:13:30.216Z,93857.09
2019-05-26T09:15:58.635Z,93849.13
2019-05-26T09:18:27.177Z,93849.13
2019-05-26T09:20:55.610Z,93852.83
2019-05-26T09:23:24.078Z,93855.23
2019-05-26T09:25:52.498Z,93858.89
2019-05-26T09:28:20.939Z,93859.91
2019-05-26T09:30:49.485Z,93852.97
2019-05-26T09:33:17.969Z,93856.73
2019-05-26T09:35:46.385Z,93852.19
2019-05-26T09:38:14.842Z,93854.22
2019-05-26T09:40:43.569Z,93850.42
2019-05-26T09:43:16.084Z,93840.88
2019-05-26T09:45:42.570Z,93842.47
2019-05-26T09:48:11.194Z,93841.69
2019-05-26T09:50:40.068Z,93838.08
2019-05-26T09:53:08.901Z,93837.54
2019-05-26T09:55:37.422Z,93833.31
2019-05-26T09:58:05.960Z,93832.65
2019-05-26T10:00:35.115Z,93836.42
2019-05-26T10:03:03.660Z,93831.95
2019-05-26T10:05:32.628Z,93830.91
2019-05-26T10:08:02.253Z,93833.16
2019-05-26T10:10:31.532Z,93834.67
2019-05-26T10:13:00.260Z,93830.83
2019-05-26T10:15:28.801Z,93835.62
2019-05-26T10:17:57.236Z,93811.52
2019-05-26T10:20:25.756Z,93811.52
2019-05-26T10:22:54.317Z,93838.33
2019-05-26T10:25:22.839Z,93826.19
2019-05-26T10:27:51.373Z,93827.13
2019-05-26T10:30:19.933Z,93819.59
2019-05-26T10:32:48.391Z,93821.77
2019-05-26T10:35:17.019Z,93816.50
2019-05-26T10:37:45.455Z,93795.63
2019-05-26T10:40:14.900Z,93808.42
2019-05-26T10:42:43.308Z,93813.45
2019-05-26T10:45:12.830Z,93814.35
2019-05-26T10:47:41.324Z,93813.20
2019-05-26T10:50:11.012Z,93815.13
2019-05-26T10:52:39.514Z,93808.17
2019-05-26T10:55:08.374Z,93810.20
2019-05-26T10:57:37.126Z,93803.67
2019-05-26T11:00:09.746Z,93797.50
2019-05-26T11:02:38.399Z,93800.14
2019-05-26T11:05:07.691Z,93799.60
2019-05-26T11:07:36.132Z,93800.72
2019-05-26T11:10:07.111Z,93762.41
2019-05-26T11:12:35.678Z,93784.40
2019-05-26T11:15:07.549Z,93796.97
2019-05-26T11:17:36.069Z,93791.32
2019-05-26T11:20:09.766Z,93796.12
2019-05-26T11:22:38.393Z,93791.88
2019-05-26T11:25:07.303Z,93788.61
2019-05-26T11:27:35.858Z,93783.18
2019-05-26T11:30:07.522Z,93779.61
2019-05-26T11:32:36.094Z,93785.50
2019-05-26T11:35:05.897Z,93785.09
2019-05-26T11:37:34.346Z,93773.95
2019-05-26T11:40:03.529Z,93771.69
2019-05-26T11:42:32.028Z,93774.95
2019-05-26T11:45:00.563Z,93771.63
2019-05-26T11:47:29.073Z,93774.83
2019-05-26T11:49:57.535Z,93763.96
2019-05-26T11:52:26.088Z,93758.63
2019-05-26T11:54:54.580Z,93765.04
2019-05-26T11:57:23.085Z,93754.47
2019-05-26T11:59:51.630Z,93754.31
2019-05-26T12:02:20.217Z,93755.04
2019-05-26T12:04:48.698Z,93747.72
2019-05-26T12:07:17.122Z,93747.33
2019-05-26T12:09:47.216Z,93750.70
2019-05-26T12:12:15.687Z,93746.48
2019-05-26T12:14:47.295Z,93734.15
2019-05-26T12:17:15.971Z,93732.61
2019-05-26T12:19:44.429Z,93732.02
2019-05-26T12:22:12.950Z,93728.13
2019-05-26T12:24:41.942Z,93736.03
2019-05-26T12:27:10.366Z,93734.20
2019-05-26T12:29:38.877Z,93734.66
2019-05-26T12:32:07.357Z,93740.36
2019-05-26T12:34:35.888Z,93735.20
2019-05-26T12:37:04.454Z,93736.59
2019-05-26T12:39:33.015Z,93741.56
2019-05-26T12:42:01.679Z,93735.42
2019-05-26T12:44:30.144Z,93737.67
2019-05-26T12:46:58.632Z,93733.16
2019-05-26T12:49:28.035Z,93734.14
2019-05-26T12:51:56.558Z,93725.59
2019-05-26T12:54:25.071Z,93725.79
2019-05-26T12:56:53.645Z,93722.28
2019-05-26T12:59:22.162Z,93730.64
2019-05-26T13:01:50.610Z,93726.01
2019-05-26T13:04:19.067Z,93725.59
2019-05-26T13:06:47.559Z,93721.24
2019-05-26T13:09:16.226Z,93721.52
2019-05-26T13:11:46.317Z,93717.26
2019-05-26T13:14:14.877Z,93718.88
2019-05-26T13:16:43.368Z,93715.00
2019-05-26T13:19:11.790Z,93705.67
2019-05-26T13:21:40.262Z,93705.08
2019-05-26T13:24:08.854Z,93703.58
2019-05-26T13:26:37.384Z,93701.95
2019-05-26T13:29:05.914Z,93698.81
2019-05-26T13:31:34.365Z,93706.63
2019-05-26T13:34:02.892Z,93702.29
2019-05-26T13:36:31.389Z,93699.86
2019-05-26T13:38:59.871Z,93701.79
2019-05-26T13:41:28.282Z,93702.28
2019-05-26T13:43:56.774Z,93694.98
2019-05-26T13:46:25.194Z,93698.58
2019-05-26T13:48:53.724Z,93697.50
2019-05-26T13:51:22.243Z,93695.09
2019-05-26T13:53:50.675Z,93692.23
2019-05-26T13:56:19.205Z,93684.20
2019-05-26T13:58:47.752Z,93696.58
2019-05-26T14:01:16.457Z,93688.27
2019-05-26T14:03:45.072Z,93681.00
2019-05-26T14:06:13.567Z,93687.35
2019-05-26T14:08:41.994Z,93690.64
2019-05-26T14:11:10.525Z,93688.77
2019-05-26T14:13:39.484Z,93694.81
2019-05-26T14:16:08.033Z,93693.98
2019-05-26T14:18:37.426Z,93687.56
2019-05-26T14:21:05.943Z,93693.11
2019-05-26T14:23:34.402Z,93690.64
2019-05-26T14:26:02.932Z,93686.25
2019-05-26T14:28:31.439Z,93696.02
2019-05-26T14:30:59.980Z,93693.11
2019-05-26T14:33:28.414Z,93687.83
2019-05-26T14:35:57.022Z,93687.83
2019-05-26T14:38:25.607Z,93682.95
2019-05-26T14:40:54.101Z,93685.64
2019-05-26T14:43:22.538Z,93676.03
2019-05-26T14:45:53.712Z,93677.90
2019-05-26T14:48:21.196Z,93677.08
2019-05-26T14:50:49.640Z,93674.39
2019-05-26T14:53:18.166Z,93678.66
2019-05-26T14:55:46.675Z,93673.98
2019-05-26T14:58:16.672Z,93669.92
2019-05-26T15:00:45.470Z,93673.38
2019-05-26T15:03:16.146Z,93670.95
2019-05-26T15:05:44.587Z,93670.80
2019-05-26T15:08:13.091Z,93670.89
2019-05-26T15:10:41.692Z,93672.79
2019-05-26T15:13:10.257Z,93673.83
2019-05-26T15:15:38.694Z,93677.14
2019-05-26T15:18:07.159Z,93671.19
2019-05-26T15:20:35.699Z,93675.41
2019-05-26T15:23:04.275Z,93674.93
2019-05-26T15:25:32.859Z,93672.89
2019-05-26T15:28:01.343Z,93670.70
2019-05-26T15:30:29.899Z,93671.21
2019-05-26T15:32:58.372Z,93669.66
2019-05-26T15:35:26.883Z,93668.12
2019-05-26T15:37:55.432Z,93670.51
2019-05-26T15:40:24.051Z,93664.39
2019-05-26T15:42:52.537Z,93665.23
2019-05-26T15:45:21.159Z,93661.22
2019-05-26T15:47:49.682Z,93659.67
2019-05-26T15:50:18.478Z,93666.09
2019-05-26T15:52:47.026Z,93661.84
2019-05-26T15:55:15.610Z,93654.89
2019-05-26T15:57:44.087Z,93651.16
2019-05-26T16:00:13.161Z,93660.76
2019-05-26T16:02:41.688Z,93659.92
2019-05-26T16:05:11.132Z,93655.14
2019-05-26T16:07:39.626Z,93649.26
2019-05-26T16:10:08.636Z,93647.40
2019-05-26T16:12:37.281Z,93646.03
2019-05-26T16:15:08.249Z,93651.91
2019-05-26T16:17:38.911Z,93650.06
2019-05-26T16:20:08.190Z,93653.77
2019-05-26T16:22:36.703Z,93651.64
2019-05-26T16:25:07.646Z,93649.52
2019-05-26T16:27:36.210Z,93653.77
2019-05-26T16:30:09.707Z,93651.89
2019-05-26T16:32:38.280Z,93642.83
2019-05-26T16:35:07.647Z,93640.17
2019-05-26T16:37:36.182Z,93643.63
2019-05-26T16:40:06.278Z,93644.67
2019-05-26T16:42:34.805Z,93639.35
2019-05-26T16:45:04.288Z,93639.92
2019-05-26T16:47:32.733Z,93633.48
2019-05-26T16:50:01.192Z,93638.33
2019-05-26T16:52:29.620Z,93639.12
2019-05-26T16:54:58.077Z,93633.78
2019-05-26T16:57:26.613Z,93631.38
2019-05-26T16:59:55.058Z,93640.19
2019-05-26T17:02:23.544Z,93628.66
2019-05-26T17:04:52.080Z,93634.50
2019-05-26T17:07:20.507Z,93636.36
2019-05-26T17:09:48.975Z,93633.33
2019-05-26T17:12:17.485Z,93629.11
2019-05-26T17:14:45.955Z,93627.20
2019-05-26T17:17:15.468Z,93629.84
2019-05-26T17:19:44.032Z,93627.93
2019-05-26T17:22:12.550Z,93624.22
2019-05-26T17:24:41.030Z,93620.00
2019-05-26T17:27:09.606Z,93621.49
2019-05-26T17:29:38.207Z,93613.55
2019-05-26T17:32:06.703Z,93615.92
2019-05-26T17:34:35.508Z,93608.16
2019-05-26T17:37:04.039Z,93614.03
2019-05-26T17:39:32.508Z,93609.75
2019-05-26T17:42:00.989Z,93613.48
2019-05-26T17:44:29.572Z,93610.22
2019-05-26T17:46:58.018Z,93614.77
2019-05-26T17:49:26.635Z,93605.31
2019-05-26T17:51:55.093Z,93611.80
2019-05-26T17:54:23.600Z,93606.84
2019-05-26T17:56:52.065Z,93608.05
2019-05-26T17:59:20.668Z,93599.91
2019-05-26T18:01:49.431Z,93597.27
2019-05-26T18:04:17.970Z,93599.91
2019-05-26T18:06:46.431Z,93599.33
2019-05-26T18:09:15.075Z,93600.11
2019-05-26T18:11:43.516Z,93598.13
2019-05-26T18:14:11.951Z,93597.05
2019-05-26T18:16:40.580Z,93590.36
2019-05-26T18:19:09.185Z,93583.92
2019-05-26T18:21:37.751Z,93584.38
2019-05-26T18:24:06.350Z,93582.52
2019-05-26T18:26:34.889Z,93586.70
2019-05-26T18:29:03.585Z,93590.37
2019-05-26T18:31:32.022Z,93581.62
2019-05-26T18:34:00.534Z,93584.73
2019-05-26T18:36:29.044Z,93582.97
2019-05-26T18:38:57.492Z,93584.91
2019-05-26T18:41:25.958Z,93577.38
2019-05-26T18:43:54.546Z,93575.68
2019-05-26T18:46:22.994Z,93580.42
2019-05-26T18:48:51.559Z,93582.43
2019-05-26T18:51:20.028Z,93579.20
2019-05-26T18:53:48.542Z,93579.11
2019-05-26T18:56:17.134Z,93578.06
2019-05-26T18:58:45.632Z,93576.41
2019-05-26T19:01:14.151Z,93581.05
2019-05-26T19:03:42.603Z,93568.53
2019-05-26T19:06:11.141Z,93572.80
2019-05-26T19:08:39.732Z,93577.44
2019-05-26T19:11:08.296Z,93576.95
2019-05-26T19:13:36.855Z,93578.81
2019-05-26T19:16:05.462Z,93583.84
2019-05-26T19:18:33.880Z,93584.18
2019-05-26T19:21:02.494Z,93583.44
2019-05-26T19:23:31.024Z,93592.27
2019-05-26T19:25:59.644Z,93591.32
2019-05-26T19:28:28.083Z,93591.32
2019-05-26T19:30:56.546Z,93591.25
2019-05-26T19:33:25.145Z,93592.05
2019-05-26T19:35:53.636Z,93596.66
2019-05-26T19:38:22.130Z,93592.13
2019-05-26T19:40:50.578Z,93597.80
2019-05-26T19:43:19.023Z,93597.77
2019-05-26T19:45:47.559Z,93598.08
2019-05-26T19:48:16.073Z,93608.63
2019-05-26T19:50:44.661Z,93602.30
2019-05-26T19:53:13.128Z,93608.14
2019-05-26T19:55:41.560Z,93607.88
2019-05-26T19:58:10.167Z,93609.44
2019-05-26T20:00:38.797Z,93615.39
2019-05-26T20:03:07.366Z,93612.75
2019-05-26T20:05:35.822Z,93615.03
2019-05-26T20:08:04.445Z,93622.15
2019-05-26T20:10:32.915Z,93622.73
2019-05-26T20:13:01.409Z,93623.38
2019-05-26T20:15:29.930Z,93624.05
2019-05-26T20:17:58.497Z,93623.41
2019-05-26T20:20:27.025Z,93620.06
2019-05-26T20:22:55.573Z,93618.64
2019-05-26T20:25:24.174Z,93617.71
2019-05-26T20:27:52.591Z,93622.59
2019-05-26T20:30:22.432Z,93628.36
2019-05-26T20:32:51.595Z,93627.73
2019-05-26T20:35:20.087Z,93628.30
2019-05-26T20:37:48.536Z,93625.84
2019-05-26T20:40:17.451Z,93622.19
2019-05-26T20:42:45.860Z,93629.83
2019-05-26T20:45:14.731Z,93624.11
2019-05-26T20:47:43.230Z,93620.90
2019-05-26T20:50:27.621Z,93618.26
2019-05-26T20:52:42.220Z,93624.83
2019-05-26T20:55:10.831Z,93622.89
2019-05-26T20:57:39.356Z,93621.03
2019-05-26T21:00:10.647Z,93623.39
2019-05-26T21:02:39.809Z,93619.86
2019-05-26T21:05:09.281Z,93627.50
2019-05-26T21:07:37.717Z,93614.72
2019-05-26T21:10:07.135Z,93617.08
2019-05-26T21:12:35.714Z,93620.87
2019-05-26T21:15:05.001Z,93619.10
2019-05-26T21:17:33.417Z,93612.39
2019-05-26T21:20:02.097Z,93620.30
2019-05-26T21:22:30.537Z,93625.19
2019-05-26T21:24:58.968Z,93621.43
2019-05-26T21:27:27.420Z,93627.52
2019-05-26T21:29:55.872Z,93628.38
2019-05-26T21:32:24.376Z,93631.00
2019-05-26T21:34:52.847Z,93628.37
2019-05-26T21:37:21.272Z,93621.43
2019-05-26T21:39:49.699Z,93619.46
2019-05-26T21:42:18.218Z,93619.88
2019-05-26T21:44:46.669Z,93623.53
2019-05-26T21:47:15.601Z,93621.19
2019-05-26T21:49:44.096Z,93619.15
2019-05-26T21:52:12.644Z,93617.16
2019-05-26T21:54:41.455Z,93617.81
2019-05-26T21:57:09.936Z,93617.63
2019-05-26T21:59:38.401Z,93616.38
2019-05-26T22:02:06.969Z,93617.83
2019-05-26T22:04:35.475Z,93610.77
2019-05-26T22:07:03.982Z,93613.40
2019-05-26T22:09:33.304Z,93610.43
2019-05-26T22:12:01.845Z,93614.47
2019-05-26T22:14:30.369Z,93614.61
2019-05-26T22:16:58.794Z,93622.00
2019-05-26T22:19:27.248Z,93615.13
2019-05-26T22:21:55.679Z,93620.00
2019-05-26T22:24:24.138Z,93617.86
2019-05-26T22:26:52.588Z,93615.19
2019-05-26T22:29:21.047Z,93614.47
2019-05-26T22:31:49.555Z,93608.25
2019-05-26T22:34:18.179Z,93609.69
2019-05-26T22:36:46.728Z,93612.17
2019-05-26T22:39:15.185Z,93616.09
2019-05-26T22:41:43.701Z,93612.56
2019-05-26T22:44:12.119Z,93610.30
2019-05-26T22:46:40.581Z,93612.96
2019-05-26T22:49:09.113Z,93611.71
2019-05-26T22:51:37.563Z,93612.38
2019-05-26T22:54:06.115Z,93605.56
2019-05-26T22:56:34.563Z,93604.43
2019-05-26T22:59:03.019Z,93611.97
2019-05-26T23:01:31.493Z,93609.16
2019-05-26T23:04:03.038Z,93607.39
2019-05-26T23:06:30.168Z,93601.78
2019-05-26T23:08:58.675Z,93597.25
2019-05-26T23:11:27.085Z,93595.42
2019-05-26T23:13:55.528Z,93591.98
2019-05-26T23:16:23.977Z,93599.95
2019-05-26T23:18:52.470Z,93589.93
2019-05-26T23:21:20.911Z,93595.72
2019-05-26T23:23:49.361Z,93595.90
2019-05-26T23:26:17.779Z,93597.23
2019-05-26T23:28:46.221Z,93585.23
2019-05-26T23:31:14.818Z,93585.63
2019-05-26T23:33:43.337Z,93583.36
2019-05-26T23:36:11.780Z,93582.01
2019-05-26T23:38:40.237Z,93580.31
2019-05-26T23:41:08.679Z,93579.22
2019-05-26T23:43:37.198Z,93573.36
2019-05-26T23:46:05.694Z,93573.36
2019-05-26T23:48:34.111Z,93568.72
2019-05-26T23:51:02.583Z,93569.42
2019-05-26T23:53:30.994Z,93568.61
2019-05-26T23:55:59.446Z,93568.33
2019-05-26T23:58:27.876Z,93564.09
